Time;durP1;ratioP1;P1;durP2;ratioP2;P2;SDS_P1;SDS_P2;PMS_P1;PMS_P2;Temp;Humidity;BMP_temperature;BMP_pressure;BME280_temperature;BME280_humidity;BME280_pressure;Samples;Min_cycle;Max_cycle;Signal;HPM_P1;HPM_P2
2021/08/26 05:05:02;;;;;;;11.32;7.20;;;;;;;13.48;80.87;99145.22;5005752;28;106667;-61
2021/08/26 05:07:27;;;;;;;10.73;7.28;;;;;;;13.54;80.64;99132.84;5005970;28;105832;-61
2021/08/26 05:09:53;;;;;;;10.60;7.28;;;;;;;13.61;81.18;99124.78;5005588;28;106165;-61
2021/08/26 05:12:18;;;;;;;9.88;7.32;;;;;;;13.73;81.31;99128.38;5006063;28;106193;-62
2021/08/26 05:14:44;;;;;;;8.55;7.45;;;;;;;13.84;81.26;99127.69;5011644;27;111206;-61
2021/08/26 05:17:09;;;;;;;10.18;7.05;;;;;;;13.99;81.17;99121.19;5010732;28;106442;-62
2021/08/26 05:19:35;;;;;;;10.10;6.38;;;;;;;14.13;81.17;99125.38;5005519;28;106391;-64
2021/08/26 05:22:00;;;;;;;9.73;6.07;;;;;;;14.24;81.26;99123.84;5005388;28;105988;-64
2021/08/26 05:24:26;;;;;;;7.85;5.55;;;;;;;14.30;81.08;99125.66;5005111;28;106455;-64
2021/08/26 05:26:52;;;;;;;8.02;5.40;;;;;;;14.39;81.11;99128.88;5004907;28;106044;-63
2021/08/26 05:29:18;;;;;;;7.60;5.90;;;;;;;14.49;81.24;99137.22;5003469;28;106260;-63
2021/08/26 05:31:43;;;;;;;5.88;4.75;;;;;;;14.59;80.99;99130.53;5003549;28;105973;-64
2021/08/26 05:34:09;;;;;;;8.55;5.30;;;;;;;14.66;81.22;99128.63;5005072;28;105941;-63
2021/08/26 05:36:34;;;;;;;6.65;4.35;;;;;;;14.72;80.81;99133.91;5005654;28;106328;-62
2021/08/26 05:38:59;;;;;;;8.15;5.13;;;;;;;14.79;80.87;99139.22;5004918;28;106129;-63
2021/08/26 05:41:25;;;;;;;6.65;4.90;;;;;;;14.83;80.99;99132.34;5004608;28;106096;-62
2021/08/26 05:43:50;;;;;;;7.30;4.68;;;;;;;14.87;80.66;99130.88;5008341;28;106612;-61
2021/08/26 05:46:15;;;;;;;6.10;4.22;;;;;;;14.87;80.38;99136.22;5025420;28;106047;-62
2021/08/26 05:48:40;;;;;;;5.82;3.72;;;;;;;14.88;80.68;99131.69;5018196;27;106275;-68
2021/08/26 05:51:06;;;;;;;6.40;4.45;;;;;;;14.95;80.84;99134.28;5003380;28;106586;-67
2021/08/26 05:53:31;;;;;;;5.25;3.80;;;;;;;15.04;80.50;99132.94;5003399;27;106408;-68
2021/08/26 05:55:56;;;;;;;5.47;3.85;;;;;;;15.15;80.79;99140.22;5004340;28;106110;-66
2021/08/26 05:58:22;;;;;;;5.88;3.67;;;;;;;15.33;80.28;99143.91;5003502;28;106163;-65
2021/08/26 06:00:48;;;;;;;5.03;3.35;;;;;;;15.43;80.37;99138.81;5004221;28;106671;-64
2021/08/26 06:03:15;;;;;;;4.95;3.45;;;;;;;15.48;79.49;99135.47;5002866;28;107261;-64
2021/08/26 06:05:40;;;;;;;4.40;3.40;;;;;;;15.53;79.81;99136.41;5005243;28;105946;-67
2021/08/26 06:08:06;;;;;;;5.32;2.65;;;;;;;15.55;79.01;99125.44;5004443;28;106310;-66
2021/08/26 06:10:31;;;;;;;6.00;3.53;;;;;;;15.57;79.34;99137.59;5004336;28;105936;-65
2021/08/26 06:12:56;;;;;;;5.28;3.80;;;;;;;15.56;79.15;99132.44;5003578;28;106084;-65
2021/08/26 06:15:22;;;;;;;5.43;3.22;;;;;;;15.52;79.06;99126.72;4997110;28;105879;-64
2021/08/26 06:17:47;;;;;;;6.85;3.40;;;;;;;15.62;79.34;99130.72;4990701;28;106126;-66
2021/08/26 06:20:14;;;;;;;5.35;3.80;;;;;;;15.65;78.76;99135.63;4990852;28;106012;-65
2021/08/26 06:22:41;;;;;;;4.38;3.15;;;;;;;15.65;78.71;99138.28;4990563;28;106889;-67
2021/08/26 06:25:07;;;;;;;6.10;3.30;;;;;;;15.63;78.74;99135.03;4991564;28;106015;-68
2021/08/26 06:27:33;;;;;;;4.93;2.70;;;;;;;15.69;78.91;99134.09;4990924;28;105883;-67
2021/08/26 06:29:58;;;;;;;6.28;3.33;;;;;;;15.91;78.66;99129.06;4990565;28;106496;-68
2021/08/26 06:32:24;;;;;;;8.60;3.15;;;;;;;16.08;78.36;99134.56;4990401;28;106276;-67
2021/08/26 06:34:49;;;;;;;4.07;2.75;;;;;;;16.35;78.79;99126.88;4991068;28;106475;-66
2021/08/26 06:37:14;;;;;;;6.18;3.08;;;;;;;16.61;77.80;99132.81;4990962;28;106119;-67
2021/08/26 06:39:40;;;;;;;3.90;2.38;;;;;;;16.71;77.41;99132.22;4990329;28;106750;-67
2021/08/26 06:42:05;;;;;;;4.88;2.78;;;;;;;16.74;76.87;99139.78;4990556;28;106407;-67
2021/08/26 06:44:30;;;;;;;5.70;3.42;;;;;;;16.60;75.85;99136.53;4991142;28;105953;-65
2021/08/26 06:46:56;;;;;;;5.20;2.83;;;;;;;16.50;75.80;99129.09;4990534;28;105956;-66
2021/08/26 06:49:22;;;;;;;6.47;3.13;;;;;;;16.48;76.41;99139.22;4990320;28;106037;-65
2021/08/26 06:51:48;;;;;;;7.90;3.78;;;;;;;16.47;75.95;99134.09;4990619;28;105980;-65
2021/08/26 06:54:13;;;;;;;7.00;3.03;;;;;;;16.40;75.85;99128.84;4991368;28;105852;-70
2021/08/26 06:56:39;;;;;;;5.40;3.28;;;;;;;16.36;75.59;99127.66;4990654;28;106299;-68
2021/08/26 06:59:04;;;;;;;6.72;3.20;;;;;;;16.34;76.20;99127.91;4989985;28;105898;-66
2021/08/26 07:01:29;;;;;;;5.78;3.42;;;;;;;16.37;76.00;99134.69;4990091;28;105846;-67
2021/08/26 07:03:55;;;;;;;5.97;4.00;;;;;;;16.34;75.74;99127.91;4990699;28;106567;-66
2021/08/26 07:06:20;;;;;;;11.75;3.70;;;;;;;16.33;75.41;99128.94;4989464;28;106255;-64
2021/08/26 07:08:45;;;;;;;6.90;3.33;;;;;;;16.40;75.01;99134.22;4989551;28;115511;-64
2021/08/26 07:11:11;;;;;;;6.03;3.58;;;;;;;16.40;74.98;99127.00;4989040;28;116600;-64
2021/08/26 07:13:36;;;;;;;9.75;4.07;;;;;;;16.49;74.34;99130.13;4989467;28;106028;-65
2021/08/26 07:16:02;;;;;;;6.88;4.03;;;;;;;16.60;73.84;99127.66;4988250;28;106193;-65
2021/08/26 07:18:28;;;;;;;8.27;4.00;;;;;;;16.80;74.08;99121.88;4989008;28;105937;-66
2021/08/26 07:20:54;;;;;;;7.68;3.85;;;;;;;17.05;73.79;99116.25;4989067;28;106115;-64
2021/08/26 07:23:21;;;;;;;7.88;4.97;;;;;;;17.32;73.88;99127.28;4990056;28;106053;-64
2021/08/26 07:25:46;;;;;;;5.40;3.60;;;;;;;17.27;72.10;99118.28;4989262;28;106047;-62
2021/08/26 07:28:12;;;;;;;6.20;3.80;;;;;;;17.08;71.76;99130.03;4988242;28;107424;-64
2021/08/26 07:30:38;;;;;;;6.85;3.45;;;;;;;16.94;71.29;99123.31;4988981;28;109059;-63
2021/08/26 07:33:04;;;;;;;7.70;4.18;;;;;;;16.85;71.86;99132.75;4989603;28;105880;-64
2021/08/26 07:35:29;;;;;;;5.75;3.85;;;;;;;16.90;72.15;99132.91;4989290;28;105752;-64
2021/08/26 07:37:54;;;;;;;6.97;3.90;;;;;;;17.00;72.04;99130.41;4988382;28;105938;-64
2021/08/26 07:40:20;;;;;;;6.70;3.50;;;;;;;17.07;71.86;99128.41;4988877;28;105981;-62
2021/08/26 07:42:45;;;;;;;9.02;3.78;;;;;;;17.20;71.74;99124.63;4989734;28;105935;-64
2021/08/26 07:45:11;;;;;;;6.80;4.15;;;;;;;17.68;71.97;99119.81;4988614;28;106097;-63
2021/08/26 07:47:36;;;;;;;6.22;3.85;;;;;;;18.04;70.53;99123.16;4988689;28;106553;-64
2021/08/26 07:50:02;;;;;;;5.57;3.35;;;;;;;18.27;69.29;99127.53;4988680;28;105997;-63
2021/08/26 07:52:27;;;;;;;8.38;3.65;;;;;;;18.52;69.35;99120.88;4989629;28;105870;-63
2021/08/26 07:54:53;;;;;;;8.25;3.92;;;;;;;18.68;68.39;99105.69;4989486;28;105792;-63
2021/08/26 07:57:18;;;;;;;5.68;3.00;;;;;;;18.60;66.70;99120.44;4987256;28;108879;-67
2021/08/26 07:59:43;;;;;;;6.40;3.63;;;;;;;18.58;67.25;99116.38;4989131;28;106630;-66
2021/08/26 08:02:09;;;;;;;6.63;3.60;;;;;;;18.79;67.51;99112.03;4990298;28;105928;-66
2021/08/26 08:04:34;;;;;;;6.95;3.55;;;;;;;18.97;66.56;99102.03;4989033;28;106242;-64
2021/08/26 08:07:00;;;;;;;9.85;3.70;;;;;;;19.34;65.98;99104.03;4988603;28;106655;-68
2021/08/26 08:09:26;;;;;;;5.65;3.08;;;;;;;19.79;66.43;99100.97;4988584;28;106047;-67
2021/08/26 08:11:51;;;;;;;6.40;3.90;;;;;;;20.00;65.13;99111.13;4989864;28;106101;-67
2021/08/26 08:14:17;;;;;;;7.20;3.72;;;;;;;19.83;62.19;99109.38;4989110;28;106117;-67
2021/08/26 08:16:42;;;;;;;8.55;4.82;;;;;;;19.58;62.73;99109.97;4988717;28;106411;-68
2021/08/26 08:19:07;;;;;;;9.20;4.40;;;;;;;19.59;62.81;99104.28;4988266;28;106539;-66
2021/08/26 08:21:33;;;;;;;7.72;4.70;;;;;;;19.75;61.94;99101.72;4989089;28;105981;-67
2021/08/26 08:23:59;;;;;;;8.18;4.78;;;;;;;19.54;61.09;99112.34;4988962;28;106200;-66
2021/08/26 08:26:24;;;;;;;6.90;4.40;;;;;;;19.37;60.38;99111.63;4988382;28;106612;-65
2021/08/26 08:28:50;;;;;;;7.65;4.38;;;;;;;19.42;60.70;99109.81;4988613;28;105993;-66
2021/08/26 08:31:15;;;;;;;8.85;4.85;;;;;;;19.62;61.03;99092.97;4989493;28;105826;-66
2021/08/26 08:33:43;;;;;;;8.55;4.60;;;;;;;20.02;60.55;99103.59;4989239;28;106079;-66
2021/08/26 08:36:09;;;;;;;8.45;4.68;;;;;;;20.28;60.65;99102.72;4987778;28;105959;-67
2021/08/26 08:38:34;;;;;;;6.28;5.03;;;;;;;20.46;60.11;99095.22;4986234;28;107298;-65
2021/08/26 08:41:00;;;;;;;6.30;4.40;;;;;;;20.78;59.35;99091.63;4988434;28;106006;-66
2021/08/26 08:43:25;;;;;;;7.45;4.30;;;;;;;21.11;59.06;99103.09;4988955;28;106644;-65
2021/08/26 08:45:52;;;;;;;9.20;4.15;;;;;;;21.77;58.76;99091.59;4988479;28;106073;-65
2021/08/26 08:48:18;;;;;;;8.00;4.10;;;;;;;22.42;57.21;99096.41;4988293;28;106094;-65
2021/08/26 08:50:45;;;;;;;6.40;4.10;;;;;;;22.51;54.81;99091.19;4988994;28;106262;-64
2021/08/26 08:53:15;;;;;;;6.15;3.03;;;;;;;22.02;54.13;99092.66;4986564;28;106191;-65
2021/08/26 08:55:43;;;;;;;6.90;2.75;;;;;;;21.48;54.18;99094.75;4996104;28;105932;-66
2021/08/26 08:58:08;;;;;;;6.88;2.90;;;;;;;21.24;54.45;99102.59;5001492;28;106903;-65
2021/08/26 09:00:34;;;;;;;7.20;2.72;;;;;;;21.32;55.21;99109.38;5009326;28;106199;-66
2021/08/26 09:03:01;;;;;;;6.10;2.58;;;;;;;21.27;54.69;99102.06;5007079;28;105955;-65
2021/08/26 09:05:46;;;;;;;6.43;3.10;;;;;;;21.10;54.38;99104.16;5007834;28;105926;-64
2021/08/26 09:08:11;;;;;;;6.35;3.10;;;;;;;21.17;54.44;99102.00;4992338;28;106493;-66
2021/08/26 09:10:37;;;;;;;7.63;3.20;;;;;;;21.32;54.34;99106.66;4988353;28;105857;-66
2021/08/26 09:13:02;;;;;;;4.95;2.80;;;;;;;22.00;54.89;99102.94;4987684;28;106115;-66
2021/08/26 09:15:30;;;;;;;7.13;3.30;;;;;;;22.78;53.23;99098.19;4987649;28;105920;-66
2021/08/26 09:18:13;;;;;;;9.88;3.70;;;;;;;24.07;50.39;99095.47;4986980;28;106127;-67
2021/08/26 09:20:49;;;;;;;6.32;2.90;;;;;;;25.82;48.14;99101.44;4988073;28;106538;-65
2021/08/26 09:23:15;;;;;;;6.35;2.83;;;;;;;25.82;46.32;99097.88;4987558;28;106137;-66
2021/08/26 09:25:42;;;;;;;6.25;2.65;;;;;;;25.42;45.55;99100.16;4987844;28;106077;-67
2021/08/26 09:28:23;;;;;;;5.85;3.10;;;;;;;24.80;44.84;99103.69;4987164;28;106119;-65
2021/08/26 09:30:49;;;;;;;6.43;3.10;;;;;;;24.40;46.12;99103.03;4988331;28;106543;-66
2021/08/26 09:33:15;;;;;;;8.73;3.08;;;;;;;25.11;46.31;99108.75;4987776;28;106717;-66
2021/08/26 09:35:42;;;;;;;5.07;2.65;;;;;;;28.19;43.66;99090.19;4987408;28;106840;-65
2021/08/26 09:38:08;;;;;;;5.90;2.67;;;;;;;28.55;38.30;99094.69;4987590;28;106237;-65
2021/08/26 09:40:47;;;;;;;6.65;2.60;;;;;;;29.20;38.39;99109.53;4987906;28;105974;-65
2021/08/26 09:43:13;;;;;;;6.97;3.00;;;;;;;32.61;35.06;99097.72;4987378;28;105769;-66
2021/08/26 09:45:40;;;;;;;5.07;2.92;;;;;;;32.22;31.04;99094.50;4987211;28;106050;-65
2021/08/26 09:48:07;;;;;;;6.72;2.88;;;;;;;29.29;32.77;99097.78;4987381;28;106098;-64
2021/08/26 09:50:38;;;;;;;6.10;2.80;;;;;;;26.90;35.69;99098.69;4989390;28;106313;-65
2021/08/26 09:53:04;;;;;;;5.25;3.00;;;;;;;25.19;39.04;99108.06;4990388;28;106156;-65
2021/08/26 09:55:57;;;;;;;6.53;2.90;;;;;;;23.84;41.67;99102.44;4990370;28;106328;-65
2021/08/26 09:58:27;;;;;;;5.65;2.80;;;;;;;23.39;44.12;99093.53;4987467;28;106396;-65
2021/08/26 10:01:09;;;;;;;7.20;3.13;;;;;;;23.01;44.73;99085.84;4990934;28;105978;-65
2021/08/26 10:03:34;;;;;;;4.82;2.83;;;;;;;22.90;45.92;99089.72;4990445;28;106193;-65
2021/08/26 10:06:00;;;;;;;3.15;1.73;;;;;;;25.85;43.86;99075.50;4990556;28;106348;-65
2021/08/26 10:08:26;;;;;;;3.08;1.60;;;;;;;28.36;38.70;99093.03;4990006;28;105997;-65
2021/08/26 10:10:52;;;;;;;4.55;1.92;;;;;;;29.26;37.14;99091.00;4990734;28;106073;-65
2021/08/26 10:13:18;;;;;;;3.67;2.00;;;;;;;29.87;35.51;99095.69;4990396;28;105833;-65
2021/08/26 10:15:44;;;;;;;2.88;1.52;;;;;;;30.63;35.13;99093.31;4989324;28;105979;-66
2021/08/26 10:18:10;;;;;;;2.95;1.63;;;;;;;31.96;32.73;99094.75;4990069;28;107436;-64
2021/08/26 10:20:35;;;;;;;2.95;1.73;;;;;;;30.26;33.36;99104.75;4989186;28;105922;-64
2021/08/26 10:23:03;;;;;;;3.35;1.58;;;;;;;28.03;35.16;99107.03;4989760;28;106110;-65
2021/08/26 10:25:29;;;;;;;2.78;1.40;;;;;;;26.16;37.40;99099.50;4989711;28;106112;-65
2021/08/26 10:27:57;;;;;;;3.65;1.30;;;;;;;25.02;39.25;99102.34;4989879;28;106201;-64
2021/08/26 10:30:28;;;;;;;4.10;1.65;;;;;;;24.27;40.67;99094.44;4990666;28;106192;-64
2021/08/26 10:33:11;;;;;;;4.53;1.80;;;;;;;23.79;41.79;99105.22;4989051;28;106309;-64
2021/08/26 10:36:00;;;;;;;5.80;1.58;;;;;;;23.69;42.36;99094.41;4989034;28;106804;-65
2021/08/26 10:38:30;;;;;;;4.93;1.30;;;;;;;26.60;42.63;99095.44;4988329;28;106465;-64
2021/08/26 10:40:57;;;;;;;3.85;1.33;;;;;;;27.22;37.35;99091.41;4986655;28;105995;-65
2021/08/26 10:43:33;;;;;;;3.47;1.23;;;;;;;26.20;37.61;99086.88;4988588;28;106101;-65
2021/08/26 10:45:59;;;;;;;2.25;1.38;;;;;;;25.16;38.72;99092.31;4984500;28;106031;-65
2021/08/26 10:48:25;;;;;;;1.92;1.20;;;;;;;24.32;39.59;99090.88;4987476;28;106471;-64
2021/08/26 10:51:12;;;;;;;4.40;1.70;;;;;;;23.29;41.01;99095.25;4989916;28;106086;-67
2021/08/26 10:53:40;;;;;;;4.28;1.48;;;;;;;22.27;42.64;99091.78;4987248;28;106172;-63
2021/08/26 10:56:34;;;;;;;3.10;1.73;;;;;;;21.60;44.20;99097.25;4989109;28;105842;-64
2021/08/26 10:59:01;;;;;;;3.08;1.10;;;;;;;21.24;45.52;99093.66;4984333;28;106558;-64
2021/08/26 11:01:43;;;;;;;2.33;1.10;;;;;;;23.51;48.26;99094.00;4989239;28;106101;-64
2021/08/26 11:04:33;;;;;;;2.42;1.33;;;;;;;27.72;40.80;99085.06;4989306;28;106325;-63
2021/08/26 11:06:59;;;;;;;2.42;0.77;;;;;;;30.23;34.99;99091.69;4987200;28;106035;-64
2021/08/26 11:09:28;;;;;;;1.88;1.05;;;;;;;29.50;33.31;99096.00;4988618;28;106266;-63
2021/08/26 11:11:59;;;;;;;2.28;1.08;;;;;;;28.73;33.42;99092.81;4989306;28;106171;-64
2021/08/26 11:14:28;;;;;;;8.38;2.00;;;;;;;29.30;34.28;99096.66;5003470;28;106284;-64
2021/08/26 11:17:02;;;;;;;1.55;0.80;;;;;;;30.11;32.99;99091.56;4998483;28;106116;-64
2021/08/26 11:19:31;;;;;;;2.63;1.17;;;;;;;28.90;32.88;99094.81;4994554;28;106031;-64
2021/08/26 11:22:00;;;;;;;2.03;1.17;;;;;;;27.32;34.82;99093.09;4993273;28;106054;-64
2021/08/26 11:24:27;;;;;;;1.80;1.00;;;;;;;25.83;36.33;99099.50;5003054;28;106007;-64
2021/08/26 11:27:00;;;;;;;2.15;1.05;;;;;;;24.46;37.90;99093.72;4998439;28;106121;-64
2021/08/26 11:29:25;;;;;;;2.75;1.40;;;;;;;23.46;39.69;99092.13;4995102;28;106276;-63
2021/08/26 11:31:53;;;;;;;2.03;1.08;;;;;;;22.58;40.84;99096.34;5006019;28;106035;-63
2021/08/26 11:34:38;;;;;;;1.55;0.80;;;;;;;21.92;42.33;99092.66;4994187;28;106184;-63
2021/08/26 11:37:17;;;;;;;3.10;1.20;;;;;;;21.37;43.39;99106.69;4997528;28;106218;-64
2021/08/26 11:40:03;;;;;;;3.00;0.90;;;;;;;21.04;44.00;99105.25;5005120;28;105820;-64
2021/08/26 11:42:29;;;;;;;3.20;1.30;;;;;;;20.80;44.90;99102.97;4990490;28;105920;-64
2021/08/26 11:45:06;;;;;;;1.92;1.00;;;;;;;20.71;45.50;99104.56;4999178;28;106399;-65
2021/08/26 11:47:34;;;;;;;2.13;1.13;;;;;;;20.78;46.07;99107.84;4989638;28;106570;-64
2021/08/26 11:50:19;;;;;;;4.90;2.70;;;;;;;21.11;46.19;99105.81;5004799;28;106671;-64
2021/08/26 11:52:47;;;;;;;3.45;1.52;;;;;;;21.59;46.40;99101.03;4998314;28;106089;-63
2021/08/26 11:55:13;;;;;;;2.55;1.10;;;;;;;22.46;45.64;99104.81;4995702;28;106572;-63
2021/08/26 11:57:38;;;;;;;5.65;1.35;;;;;;;23.22;45.00;99096.63;5004897;28;106070;-64
2021/08/26 12:00:09;;;;;;;4.43;1.25;;;;;;;23.45;43.67;99095.13;4992595;28;106045;-64
2021/08/26 12:02:36;;;;;;;2.35;1.10;;;;;;;23.09;43.26;99098.84;5000617;28;105922;-65
2021/08/26 12:05:03;;;;;;;1.98;1.27;;;;;;;22.62;43.78;99100.97;5000262;28;106252;-64
2021/08/26 12:07:32;;;;;;;6.15;1.50;;;;;;;22.17;44.28;99099.97;4992681;28;105860;-64
2021/08/26 12:10:06;;;;;;;3.15;1.38;;;;;;;21.78;44.62;99103.22;5004815;28;106131;-64
2021/08/26 12:12:31;;;;;;;2.17;1.20;;;;;;;21.42;45.43;99097.72;4994001;28;105942;-65
2021/08/26 12:14:57;;;;;;;3.00;1.42;;;;;;;21.28;46.15;99102.84;4997118;28;107336;-64
2021/08/26 12:17:23;;;;;;;2.45;1.25;;;;;;;21.12;46.27;99115.56;5002450;28;106002;-65
2021/08/26 12:19:50;;;;;;;3.50;1.73;;;;;;;20.76;46.80;99118.94;4990898;28;106101;-65
2021/08/26 12:22:18;;;;;;;2.97;1.40;;;;;;;20.33;47.86;99122.75;4989912;28;107342;-64
2021/08/26 12:24:52;;;;;;;5.22;1.77;;;;;;;19.98;49.13;99124.91;4993468;28;105846;-63
2021/08/26 12:27:18;;;;;;;4.28;1.90;;;;;;;19.60;50.31;99135.66;4997975;28;106551;-64
2021/08/26 12:29:46;;;;;;;4.50;1.80;;;;;;;19.28;51.19;99136.38;5001713;28;105917;-65
2021/08/26 12:32:29;;;;;;;3.65;2.08;;;;;;;18.93;52.43;99145.72;4992339;28;106366;-65
2021/08/26 12:35:12;;;;;;;5.72;2.08;;;;;;;18.74;53.35;99130.84;5001191;28;106302;-65
2021/08/26 12:37:58;;;;;;;5.28;2.35;;;;;;;18.70;54.33;99130.56;5000835;28;105799;-65
2021/08/26 12:40:28;;;;;;;5.20;2.28;;;;;;;18.81;55.28;99131.50;4990972;28;105913;-65
2021/08/26 12:43:06;;;;;;;4.90;2.00;;;;;;;18.95;55.71;99129.28;5001737;28;106115;-65
2021/08/26 12:45:35;;;;;;;6.45;2.65;;;;;;;19.15;56.09;99120.59;4999023;28;106185;-64
2021/08/26 12:48:19;;;;;;;4.85;2.40;;;;;;;19.33;56.13;99124.84;4991712;28;106064;-64
2021/08/26 12:50:45;;;;;;;5.80;2.78;;;;;;;19.43;56.40;99141.13;4973286;28;106073;-64
2021/08/26 12:53:17;;;;;;;4.03;2.30;;;;;;;19.40;56.57;99136.25;4990585;28;106023;-65
2021/08/26 12:55:57;;;;;;;3.75;2.20;;;;;;;19.22;56.44;99145.50;4987051;28;106448;-61
2021/08/26 12:58:22;;;;;;;4.97;1.40;;;;;;;18.98;57.19;99154.94;4987322;28;106129;-63
2021/08/26 13:00:48;;;;;;;3.35;1.20;;;;;;;18.84;57.08;99152.59;4987219;28;107008;-64
2021/08/26 13:03:13;;;;;;;1.10;0.98;;;;;;;18.79;57.20;99149.81;4988222;28;106168;-64
2021/08/26 13:05:47;;;;;;;3.42;1.45;;;;;;;18.92;57.18;99143.28;4988136;28;105792;-64
2021/08/26 13:08:13;;;;;;;3.08;1.00;;;;;;;18.89;56.70;99144.59;4987699;28;106706;-64
2021/08/26 13:10:38;;;;;;;3.90;1.15;;;;;;;18.94;56.90;99152.75;4987840;28;105988;-62
2021/08/26 13:13:12;;;;;;;2.72;1.20;;;;;;;18.95;56.80;99142.75;4988510;28;105967;-61
2021/08/26 13:15:38;;;;;;;2.10;0.70;;;;;;;18.96;56.23;99155.19;4987462;28;105995;-63
2021/08/26 13:18:04;;;;;;;2.42;0.90;;;;;;;18.87;56.09;99143.97;4987563;28;106146;-62
2021/08/26 13:20:30;;;;;;;2.55;1.05;;;;;;;19.05;56.23;99139.38;4984777;28;106924;-63
2021/08/26 13:22:55;;;;;;;2.70;1.20;;;;;;;19.25;56.08;99145.00;4986606;28;106175;-63
2021/08/26 13:25:20;;;;;;;1.00;0.77;;;;;;;19.56;55.95;99142.63;4987731;28;106214;-63
2021/08/26 13:27:46;;;;;;;1.80;0.90;;;;;;;19.96;55.69;99154.09;4989399;28;106640;-63
2021/08/26 13:30:15;;;;;;;2.47;1.00;;;;;;;20.29;54.92;99152.19;4989154;28;106049;-64
2021/08/26 13:32:42;;;;;;;4.70;1.20;;;;;;;20.29;53.84;99155.69;4989906;28;106026;-64
2021/08/26 13:35:09;;;;;;;2.38;1.30;;;;;;;20.09;53.62;99156.38;4989898;28;106344;-63
2021/08/26 13:37:46;;;;;;;3.17;1.20;;;;;;;19.86;53.75;99154.00;4989478;28;106043;-64
2021/08/26 13:40:17;;;;;;;2.00;1.17;;;;;;;19.70;53.97;99153.03;4989609;28;106121;-65
2021/08/26 13:42:43;;;;;;;2.33;1.55;;;;;;;19.53;54.04;99153.97;4990117;28;106029;-64
2021/08/26 13:45:10;;;;;;;2.28;1.10;;;;;;;19.26;53.91;99154.75;4989251;28;105994;-64
2021/08/26 13:47:36;;;;;;;1.65;0.93;;;;;;;19.02;54.35;99159.56;4989624;28;106034;-65
2021/08/26 13:50:01;;;;;;;2.72;1.23;;;;;;;18.81;54.34;99152.25;4989045;28;106393;-64
2021/08/26 13:52:27;;;;;;;2.63;1.40;;;;;;;18.73;54.85;99157.03;4990162;28;106367;-64
2021/08/26 13:54:53;;;;;;;1.70;1.30;;;;;;;18.68;54.94;99158.84;4988928;28;106312;-65
2021/08/26 13:57:19;;;;;;;5.20;1.40;;;;;;;18.57;55.18;99153.28;4989018;28;106352;-64
2021/08/26 13:59:44;;;;;;;2.45;1.10;;;;;;;18.57;55.66;99150.59;4989210;28;106051;-65
2021/08/26 14:02:09;;;;;;;2.63;1.30;;;;;;;18.60;55.73;99142.03;4990256;28;105896;-64
2021/08/26 14:04:35;;;;;;;2.90;1.33;;;;;;;18.61;55.74;99142.84;4988868;28;106212;-64
2021/08/26 14:07:00;;;;;;;5.70;1.60;;;;;;;18.59;56.09;99151.19;4989208;28;105994;-64
2021/08/26 14:09:25;;;;;;;4.05;1.85;;;;;;;18.53;56.41;99143.25;4988634;28;105942;-64
2021/08/26 14:11:51;;;;;;;4.68;2.00;;;;;;;18.55;56.76;99157.31;4990262;28;106000;-65
2021/08/26 14:14:16;;;;;;;4.30;2.20;;;;;;;18.71;57.30;99159.16;4989402;28;106164;-65
2021/08/26 14:16:42;;;;;;;5.53;1.95;;;;;;;19.01;57.42;99151.75;4988724;28;106740;-65
2021/08/26 14:19:07;;;;;;;4.88;2.10;;;;;;;19.51;57.49;99153.38;4988829;28;106399;-65
2021/08/26 14:21:32;;;;;;;3.20;1.65;;;;;;;19.94;57.00;99154.38;4989558;28;106344;-65
2021/08/26 14:23:58;;;;;;;2.25;1.63;;;;;;;20.02;56.20;99166.56;4989422;28;106117;-65
2021/08/26 14:26:23;;;;;;;3.92;2.03;;;;;;;19.88;55.60;99160.78;4988849;28;106194;-65
2021/08/26 14:28:49;;;;;;;3.25;1.85;;;;;;;19.59;55.74;99162.94;4988955;28;106010;-65
2021/08/26 14:31:14;;;;;;;2.80;1.88;;;;;;;19.54;56.54;99166.38;4989795;28;106406;-65
2021/08/26 14:33:40;;;;;;;5.18;1.98;;;;;;;19.71;56.88;99166.28;4988575;28;106216;-65
2021/08/26 14:36:06;;;;;;;5.05;2.20;;;;;;;19.78;56.87;99166.09;4988418;28;106035;-65
2021/08/26 14:38:33;;;;;;;2.90;1.90;;;;;;;19.74;57.00;99159.56;4988641;28;106339;-64
2021/08/26 14:40:58;;;;;;;4.95;2.38;;;;;;;19.72;57.21;99157.09;4989309;28;105847;-64
2021/08/26 14:43:25;;;;;;;4.93;2.00;;;;;;;19.74;57.52;99157.66;4988277;28;106339;-63
2021/08/26 14:45:51;;;;;;;6.10;3.78;;;;;;;19.79;57.34;99159.59;4988121;28;106233;-64
2021/08/26 14:48:16;;;;;;;3.03;1.00;;;;;;;19.72;57.00;99164.38;4988467;28;106502;-64
2021/08/26 14:50:41;;;;;;;2.83;1.20;;;;;;;19.61;56.74;99167.00;4989096;28;105937;-64
2021/08/26 14:53:07;;;;;;;1.90;0.80;;;;;;;19.48;56.31;99162.00;4988419;28;106303;-65
2021/08/26 14:55:33;;;;;;;2.45;0.90;;;;;;;19.44;56.42;99171.69;4987412;28;106650;-64
2021/08/26 14:57:59;;;;;;;1.02;0.80;;;;;;;19.53;56.39;99172.88;4971244;28;106011;-67
2021/08/26 15:00:24;;;;;;;2.22;1.02;;;;;;;19.64;56.13;99172.94;4978972;28;105930;-67
2021/08/26 15:02:50;;;;;;;1.98;0.80;;;;;;;19.77;55.42;99180.66;5009635;28;106332;-63
